Wind Star — C6CA9 — position and weather

sailwx.info

Track history (hours):
 
Tides and Currents Weather Stations Pressure Air Temp Water Temp Dewpoint Dewpoint Depression Visibility Wind Speed Wind Dir Waves Ship Positions

Wind Star

Operator: Holland America Line

Last reported at 2019-Sep-16 06:05 UTC. Time now 2019-Sep-17 08:43 UTC.
Position N 37°23' E 025°55'.

Length 134 m; draft 4.1 m.

Type: Ship. MMSI: 309163000.

Date/timePositionNaut miles runAvg speedWind from/ knotsBaromVisibWave heightAir tempDewpointWater temp
2019-Sep-16 06:05N 37°23' E 025°55'1 8.9
2019-Sep-16 06:00N 37°23' E 025°54'4 8.8
2019-Sep-16 05:30N 37°23' E 025°49'5 9.0
2019-Sep-16 04:59N 37°22' E 025°43'5 9.5
2019-Sep-16 04:30N 37°22' E 025°37'5 9.7
2019-Sep-16 04:00N 37°21' E 025°31'510.1
2019-Sep-16 03:30N 37°21' E 025°25'510.7
2019-Sep-16 03:00N 37°21' E 025°18'510.3
2019-Sep-16 02:30N 37°20' E 025°12'510.0
2019-Sep-16 01:58N 37°20' E 025°05'510.0
2019-Sep-16 01:30N 37°19' E 024°59'510.3
2019-Sep-16 01:00N 37°18' E 024°53'510.4
2019-Sep-16 00:30N 37°18' E 024°46'8110.0
2019-Sep-15 16:22N 37°09' E 023°05'411.5
2019-Sep-15 16:00N 37°12' E 023°02'2511.6
2019-Sep-15 13:52N 37°34' E 022°47'0 0.3
2019-Sep-15 13:25N 37°34' E 022°47'0 0.1
2019-Sep-15 12:58N 37°34' E 022°47'0 0.0
2019-Sep-15 12:10N 37°34' E 022°47'0 0.0
2019-Sep-15 11:37N 37°34' E 022°47'0 0.0
2019-Sep-15 11:22N 37°34' E 022°47'0 0.0
2019-Sep-15 10:37N 37°34' E 022°47'0 0.0
2019-Sep-15 10:10N 37°34' E 022°47'0 0.0
2019-Sep-15 09:46N 37°34' E 022°47'0 0.0
2019-Sep-15 09:13N 37°34' E 022°47'0 0.0
2019-Sep-15 08:58N 37°34' E 022°47'0 0.0
2019-Sep-15 08:28N 37°34' E 022°47'0 0.0
2019-Sep-15 07:55N 37°34' E 022°47'0 0.0
2019-Sep-15 07:19N 37°34' E 022°47'0 0.1
2019-Sep-15 06:55N 37°34' E 022°47'0 0.0
2019-Sep-15 06:10N 37°34' E 022°47'0 0.0
2019-Sep-15 05:49N 37°34' E 022°47'0 0.0
2019-Sep-15 05:22N 37°34' E 022°47'0 0.0
2019-Sep-15 04:58N 37°34' E 022°47'0 0.0
2019-Sep-15 04:22N 37°34' E 022°47'0 0.0
2019-Sep-15 03:59N 37°34' E 022°47'19 6.8
2019-Sep-15 01:14N 37°17' E 022°58'2 7.6
2019-Sep-15 01:00N 37°16' E 022°59'4 7.4
2019-Sep-15 00:24N 37°12' E 023°02'3 7.8
2019-Sep-14 23:58N 37°09' E 023°04'6 7.7
2019-Sep-14 23:10N 37°08' E 023°12'7 8.7
2019-Sep-14 22:25N 37°09' E 023°20'18 7.7
2019-Sep-14 20:01N 37°18' E 023°40'17 9.2
2019-Sep-14 18:13N 37°35' E 023°43'311.7
2019-Sep-14 18:00N 37°37' E 023°43'611.5
2019-Sep-14 17:31N 37°43' E 023°40'611.6
2019-Sep-14 17:01N 37°48' E 023°37'611.0
2019-Sep-14 16:30N 37°54' E 023°37'3 4.9
2019-Sep-14 15:54N 37°56' E 023°38'0 0.0
2019-Sep-14 15:28N 37°56' E 023°38'0 0.0
2019-Sep-14 14:55N 37°56' E 023°38'0 0.0
2019-Sep-14 14:28N 37°56' E 023°38'0 0.0
2019-Sep-14 13:57N 37°56' E 023°38'0 0.0
2019-Sep-14 13:28N 37°56' E 023°38'0 0.0
2019-Sep-14 12:58N 37°56' E 023°38'0 0.0
2019-Sep-14 12:28N 37°56' E 023°38'0 0.0
2019-Sep-14 12:01N 37°56' E 023°38'0 0.0
2019-Sep-14 11:27N 37°56' E 023°38'0 0.0
2019-Sep-14 10:58N 37°56' E 023°38'0 0.0
2019-Sep-14 10:24N 37°56' E 023°38'0 0.0
2019-Sep-14 09:57N 37°56' E 023°38'0 0.0
2019-Sep-14 09:28N 37°56' E 023°38'0 0.0
2019-Sep-14 08:58N 37°56' E 023°38'0 0.0
2019-Sep-14 08:12N 37°56' E 023°38'0 0.0
2019-Sep-14 08:01N 37°56' E 023°38'0 0.0
2019-Sep-14 07:30N 37°56' E 023°38'0 0.0
2019-Sep-14 06:55N 37°56' E 023°38'0 0.0
2019-Sep-14 06:25N 37°56' E 023°38'0 0.0
2019-Sep-14 06:01N 37°56' E 023°38'0 0.0
2019-Sep-14 05:28N 37°56' E 023°38'0 0.0
2019-Sep-14 04:57N 37°56' E 023°38'0 0.0
2019-Sep-14 04:24N 37°56' E 023°38'0 0.0
2019-Sep-14 04:01N 37°56' E 023°38'0 0.0
2019-Sep-14 03:31N 37°56' E 023°38'0 0.0
2019-Sep-14 02:49N 37°56' E 023°38'0 0.0
2019-Sep-14 02:31N 37°56' E 023°38'0 0.0
2019-Sep-14 02:01N 37°56' E 023°38'0 0.0
2019-Sep-14 01:24N 37°56' E 023°38'0 0.0
2019-Sep-14 00:43N 37°56' E 023°38'0 0.0
2019-Sep-14 00:25N 37°56' E 023°38'0 0.0
2019-Sep-13 23:43N 37°56' E 023°38'0 0.0
2019-Sep-13 23:13N 37°56' E 023°38'0 0.0
2019-Sep-13 22:55N 37°56' E 023°38'0 0.0
2019-Sep-13 22:31N 37°56' E 023°38'0 0.0
2019-Sep-13 22:01N 37°56' E 023°38'0 0.0
2019-Sep-13 21:31N 37°56' E 023°38'0 0.0
2019-Sep-13 20:58N 37°56' E 023°38'0 0.0
2019-Sep-13 20:31N 37°56' E 023°38'0 0.0
2019-Sep-13 19:49N 37°56' E 023°38'0 0.0
2019-Sep-13 19:13N 37°56' E 023°38'0 0.0
2019-Sep-13 19:01N 37°56' E 023°38'0 0.0
2019-Sep-13 18:25N 37°56' E 023°38'0 0.0
2019-Sep-13 17:48N 37°56' E 023°38'0 0.0
2019-Sep-13 17:31N 37°56' E 023°38'0 0.0
2019-Sep-13 17:01N 37°56' E 023°38'0 0.0
2019-Sep-13 16:24N 37°56' E 023°38'0 0.0
2019-Sep-13 15:58N 37°56' E 023°38'0 0.0
2019-Sep-13 15:31N 37°56' E 023°38'0 0.0
2019-Sep-13 14:58N 37°56' E 023°38'0 0.0
2019-Sep-13 14:28N 37°56' E 023°38'0 0.0
2019-Sep-13 14:01N 37°56' E 023°38'0 0.0
2019-Sep-13 13:31N 37°56' E 023°38'0 0.0
2019-Sep-13 13:00N 37°56' E 023°38'0 0.0
2019-Sep-13 12:30N 37°56' E 023°38'0 0.0
2019-Sep-13 12:00N 37°56' E 023°38'0 0.0
2019-Sep-13 11:31N 37°56' E 023°38'0 0.0
2019-Sep-13 10:54N 37°56' E 023°38'0 0.0
2019-Sep-13 10:24N 37°56' E 023°38'0 0.0
2019-Sep-13 10:01N 37°56' E 023°38'0 0.0
2019-Sep-13 09:30N 37°56' E 023°38'0 0.0
2019-Sep-13 09:00N 37°56' E 023°38'0 0.0
2019-Sep-13 08:30N 37°56' E 023°38'0 0.0
2019-Sep-13 07:52N 37°56' E 023°38'0 0.0
2019-Sep-13 07:31N 37°56' E 023°38'0 0.0
2019-Sep-13 07:01N 37°56' E 023°38'0 0.0
2019-Sep-13 06:30N 37°56' E 023°38'0 0.0
2019-Sep-13 06:00N 37°56' E 023°38'1 2.1
2019-Sep-13 05:31N 37°56' E 023°37'1 1.6
2019-Sep-13 05:00N 37°55' E 023°37'4 7.2
2019-Sep-13 04:30N 37°52' E 023°39'4 7.5
2019-Sep-13 04:00N 37°48' E 023°40'4 7.4
2019-Sep-13 03:31N 37°45' E 023°42'5 9.1
2019-Sep-13 03:00N 37°41' E 023°45'5 9.6
2019-Sep-13 02:30N 37°36' E 023°46'  
2019-Sep-09 04:24N 37°23' E 025°55'512.0
2019-Sep-09 04:00N 37°23' E 025°49'612.1
2019-Sep-09 03:28N 37°22' E 025°41'612.0
2019-Sep-09 03:00N 37°22' E 025°34'1212.2
2019-Sep-09 02:00N 37°21' E 025°19'612.2
2019-Sep-09 01:30N 37°20' E 025°11'612.1
2019-Sep-09 01:00N 37°19' E 025°04'611.4
2019-Sep-09 00:30N 37°19' E 024°57'612.5
2019-Sep-09 00:00N 37°18' E 024°49'7611.6
2019-Sep-08 17:27N 37°10' E 023°14'1110.3
2019-Sep-08 16:24N 37°14' E 023°01'410.5
2019-Sep-08 16:00N 37°17' E 022°58'1410.3
2019-Sep-08 14:40N 37°29' E 022°49'510.1
2019-Sep-08 14:10N 37°34' E 022°47'0 1.7
2019-Sep-08 13:58N 37°34' E 022°47'0 0.1
2019-Sep-08 13:28N 37°34' E 022°47'0 0.0
2019-Sep-08 12:37N 37°34' E 022°47'0 0.0
2019-Sep-08 12:25N 37°34' E 022°47'0 0.0
2019-Sep-08 11:55N 37°34' E 022°47'0 0.0
2019-Sep-08 11:25N 37°34' E 022°47'0 0.0
2019-Sep-08 10:55N 37°34' E 022°47'0 0.0
2019-Sep-08 10:25N 37°34' E 022°47'0 0.0
2019-Sep-08 09:58N 37°34' E 022°47'0 0.0
2019-Sep-08 09:28N 37°34' E 022°47'0 0.0
2019-Sep-08 08:58N 37°34' E 022°47'0 0.0
2019-Sep-08 03:51N 37°34' E 022°47'4 5.8
2019-Sep-08 03:07N 37°30' E 022°49'1 5.6
2019-Sep-08 02:57N 37°29' E 022°49'14 6.4
2019-Sep-08 00:48N 37°17' E 022°58'9 6.1
2019-Sep-07 23:20N 37°10' E 023°04'4 5.5
2019-Sep-07 22:40N 37°08' E 023°08'1 6.0
2019-Sep-07 22:26N 37°08' E 023°10'4 6.2
2019-Sep-07 21:47N 37°09' E 023°15'6 6.7
2019-Sep-07 20:50N 37°10' E 023°23'3 8.0
2019-Sep-07 20:30N 37°10' E 023°26'29 6.6
2019-Sep-07 16:07N 37°36' E 023°43'1 8.2
2019-Sep-07 16:00N 37°36' E 023°43'5 9.7
2019-Sep-07 15:30N 37°41' E 023°41'611.5
2019-Sep-07 15:00N 37°47' E 023°39'510.8
2019-Sep-07 14:30N 37°52' E 023°37'5 9.5
2019-Sep-07 14:00N 37°56' E 023°38'0 0.4
2019-Sep-07 13:29N 37°56' E 023°38'0 0.0
2019-Sep-07 12:59N 37°56' E 023°38'0 0.0
2019-Sep-07 12:29N 37°56' E 023°38'0 0.0
2019-Sep-07 11:56N 37°56' E 023°38'0 0.0
2019-Sep-07 11:29N 37°56' E 023°38'0 0.0
2019-Sep-07 10:59N 37°56' E 023°38'0 0.0
2019-Sep-07 10:26N 37°56' E 023°38'0 0.0
2019-Sep-07 09:59N 37°56' E 023°38'0 0.0
2019-Sep-07 09:26N 37°56' E 023°38'0 0.0
2019-Sep-07 08:56N 37°56' E 023°38'0 0.0
2019-Sep-07 08:29N 37°56' E 023°38'0 0.0
2019-Sep-07 07:59N 37°56' E 023°38'0 0.0
2019-Sep-07 07:29N 37°56' E 023°38'0 0.0
2019-Sep-07 06:56N 37°56' E 023°38'0 0.0
2019-Sep-07 06:29N 37°56' E 023°38'0 0.0
2019-Sep-07 05:59N 37°56' E 023°38'0 0.0
2019-Sep-07 05:29N 37°56' E 023°38'0 0.0
2019-Sep-07 04:59N 37°56' E 023°38'0 0.0
2019-Sep-07 04:23N 37°56' E 023°38'0 0.0
2019-Sep-07 03:59N 37°56' E 023°38'0 0.0
2019-Sep-07 03:29N 37°56' E 023°38'0 0.0
2019-Sep-07 02:59N 37°56' E 023°38'0 0.0
2019-Sep-07 02:26N 37°56' E 023°38'0 0.0
2019-Sep-07 02:00N 37°56' E 023°38'1 2.4
2019-Sep-07 01:30N 37°56' E 023°37'3 5.4
2019-Sep-07 01:01N 37°53' E 023°37'4 7.2
2019-Sep-07 00:31N 37°50' E 023°39'4 7.0
2019-Sep-07 00:01N 37°47' E 023°41'4 7.4
2019-Sep-06 23:30N 37°44' E 023°43'4 7.3
2019-Sep-06 23:00N 37°40' E 023°45'4 7.4
2019-Sep-06 22:31N 37°37' E 023°46'4 7.6
2019-Sep-06 22:00N 37°33' E 023°46'36 7.5
2019-Sep-06 17:12N 37°09' E 023°12'311.2
2019-Sep-06 16:57N 37°09' E 023°09'610.2
2019-Sep-06 16:21N 37°12' E 023°02'411.1
2019-Sep-06 16:00N 37°15' E 022°60'2110.4
2019-Sep-06 13:57N 37°34' E 022°47'0 0.3
2019-Sep-06 13:17N 37°34' E 022°47'0 0.0
2019-Sep-06 12:59N 37°34' E 022°47'0 0.0
2019-Sep-06 12:23N 37°34' E 022°47'0 0.1
2019-Sep-06 11:53N 37°34' E 022°47'  
Track history (hours):
 
Tides and Currents Weather Stations Pressure Air Temp Water Temp Dewpoint Dewpoint Depression Visibility Wind Speed Wind Dir Waves Ship Positions

Wind Star

Operator: Holland America Line

Last reported at 2019-Sep-16 06:05 UTC. Time now 2019-Sep-17 08:43 UTC.
Position N 37°23' E 025°55'.

Length 134 m; draft 4.1 m.

Type: Ship. MMSI: 309163000.

Date/timePositionNaut miles runAvg speedWind from/ knotsBaromVisibWave heightAir tempDewpointWater temp
2019-Sep-16 06:05N 37°23' E 025°55'1 8.9
2019-Sep-16 06:00N 37°23' E 025°54'4 8.8
2019-Sep-16 05:30N 37°23' E 025°49'5 9.0
2019-Sep-16 04:59N 37°22' E 025°43'5 9.5
2019-Sep-16 04:30N 37°22' E 025°37'5 9.7
2019-Sep-16 04:00N 37°21' E 025°31'510.1
2019-Sep-16 03:30N 37°21' E 025°25'510.7
2019-Sep-16 03:00N 37°21' E 025°18'510.3
2019-Sep-16 02:30N 37°20' E 025°12'510.0
2019-Sep-16 01:58N 37°20' E 025°05'510.0
2019-Sep-16 01:30N 37°19' E 024°59'510.3
2019-Sep-16 01:00N 37°18' E 024°53'510.4
2019-Sep-16 00:30N 37°18' E 024°46'8110.0
2019-Sep-15 16:22N 37°09' E 023°05'411.5
2019-Sep-15 16:00N 37°12' E 023°02'2511.6
2019-Sep-15 13:52N 37°34' E 022°47'0 0.3
2019-Sep-15 13:25N 37°34' E 022°47'0 0.1
2019-Sep-15 12:58N 37°34' E 022°47'0 0.0
2019-Sep-15 12:10N 37°34' E 022°47'0 0.0
2019-Sep-15 11:37N 37°34' E 022°47'0 0.0
2019-Sep-15 11:22N 37°34' E 022°47'0 0.0
2019-Sep-15 10:37N 37°34' E 022°47'0 0.0
2019-Sep-15 10:10N 37°34' E 022°47'0 0.0
2019-Sep-15 09:46N 37°34' E 022°47'0 0.0
2019-Sep-15 09:13N 37°34' E 022°47'0 0.0
2019-Sep-15 08:58N 37°34' E 022°47'0 0.0
2019-Sep-15 08:28N 37°34' E 022°47'0 0.0
2019-Sep-15 07:55N 37°34' E 022°47'0 0.0
2019-Sep-15 07:19N 37°34' E 022°47'0 0.1
2019-Sep-15 06:55N 37°34' E 022°47'0 0.0
2019-Sep-15 06:10N 37°34' E 022°47'0 0.0
2019-Sep-15 05:49N 37°34' E 022°47'0 0.0
2019-Sep-15 05:22N 37°34' E 022°47'0 0.0
2019-Sep-15 04:58N 37°34' E 022°47'0 0.0
2019-Sep-15 04:22N 37°34' E 022°47'0 0.0
2019-Sep-15 03:59N 37°34' E 022°47'19 6.8
2019-Sep-15 01:14N 37°17' E 022°58'2 7.6
2019-Sep-15 01:00N 37°16' E 022°59'4 7.4
2019-Sep-15 00:24N 37°12' E 023°02'3 7.8
2019-Sep-14 23:58N 37°09' E 023°04'6 7.7
2019-Sep-14 23:10N 37°08' E 023°12'7 8.7
2019-Sep-14 22:25N 37°09' E 023°20'18 7.7
2019-Sep-14 20:01N 37°18' E 023°40'17 9.2
2019-Sep-14 18:13N 37°35' E 023°43'311.7
2019-Sep-14 18:00N 37°37' E 023°43'611.5
2019-Sep-14 17:31N 37°43' E 023°40'611.6
2019-Sep-14 17:01N 37°48' E 023°37'611.0
2019-Sep-14 16:30N 37°54' E 023°37'3 4.9
2019-Sep-14 15:54N 37°56' E 023°38'0 0.0
2019-Sep-14 15:28N 37°56' E 023°38'0 0.0
2019-Sep-14 14:55N 37°56' E 023°38'0 0.0
2019-Sep-14 14:28N 37°56' E 023°38'0 0.0
2019-Sep-14 13:57N 37°56' E 023°38'0 0.0
2019-Sep-14 13:28N 37°56' E 023°38'0 0.0
2019-Sep-14 12:58N 37°56' E 023°38'0 0.0
2019-Sep-14 12:28N 37°56' E 023°38'0 0.0
2019-Sep-14 12:01N 37°56' E 023°38'0 0.0
2019-Sep-14 11:27N 37°56' E 023°38'0 0.0
2019-Sep-14 10:58N 37°56' E 023°38'0 0.0
2019-Sep-14 10:24N 37°56' E 023°38'0 0.0
2019-Sep-14 09:57N 37°56' E 023°38'0 0.0
2019-Sep-14 09:28N 37°56' E 023°38'0 0.0
2019-Sep-14 08:58N 37°56' E 023°38'0 0.0
2019-Sep-14 08:12N 37°56' E 023°38'0 0.0
2019-Sep-14 08:01N 37°56' E 023°38'0 0.0
2019-Sep-14 07:30N 37°56' E 023°38'0 0.0
2019-Sep-14 06:55N 37°56' E 023°38'0 0.0
2019-Sep-14 06:25N 37°56' E 023°38'0 0.0
2019-Sep-14 06:01N 37°56' E 023°38'0 0.0
2019-Sep-14 05:28N 37°56' E 023°38'0 0.0
2019-Sep-14 04:57N 37°56' E 023°38'0 0.0
2019-Sep-14 04:24N 37°56' E 023°38'0 0.0
2019-Sep-14 04:01N 37°56' E 023°38'0 0.0
2019-Sep-14 03:31N 37°56' E 023°38'0 0.0
2019-Sep-14 02:49N 37°56' E 023°38'0 0.0
2019-Sep-14 02:31N 37°56' E 023°38'0 0.0
2019-Sep-14 02:01N 37°56' E 023°38'0 0.0
2019-Sep-14 01:24N 37°56' E 023°38'0 0.0
2019-Sep-14 00:43N 37°56' E 023°38'0 0.0
2019-Sep-14 00:25N 37°56' E 023°38'0 0.0
2019-Sep-13 23:43N 37°56' E 023°38'0 0.0
2019-Sep-13 23:13N 37°56' E 023°38'0 0.0
2019-Sep-13 22:55N 37°56' E 023°38'0 0.0
2019-Sep-13 22:31N 37°56' E 023°38'0 0.0
2019-Sep-13 22:01N 37°56' E 023°38'0 0.0
2019-Sep-13 21:31N 37°56' E 023°38'0 0.0
2019-Sep-13 20:58N 37°56' E 023°38'0 0.0
2019-Sep-13 20:31N 37°56' E 023°38'0 0.0
2019-Sep-13 19:49N 37°56' E 023°38'0 0.0
2019-Sep-13 19:13N 37°56' E 023°38'0 0.0
2019-Sep-13 19:01N 37°56' E 023°38'0 0.0
2019-Sep-13 18:25N 37°56' E 023°38'0 0.0
2019-Sep-13 17:48N 37°56' E 023°38'0 0.0
2019-Sep-13 17:31N 37°56' E 023°38'0 0.0
2019-Sep-13 17:01N 37°56' E 023°38'0 0.0
2019-Sep-13 16:24N 37°56' E 023°38'0 0.0
2019-Sep-13 15:58N 37°56' E 023°38'0 0.0
2019-Sep-13 15:31N 37°56' E 023°38'0 0.0
2019-Sep-13 14:58N 37°56' E 023°38'0 0.0
2019-Sep-13 14:28N 37°56' E 023°38'0 0.0
2019-Sep-13 14:01N 37°56' E 023°38'0 0.0
2019-Sep-13 13:31N 37°56' E 023°38'0 0.0
2019-Sep-13 13:00N 37°56' E 023°38'0 0.0
2019-Sep-13 12:30N 37°56' E 023°38'0 0.0
2019-Sep-13 12:00N 37°56' E 023°38'0 0.0
2019-Sep-13 11:31N 37°56' E 023°38'0 0.0
2019-Sep-13 10:54N 37°56' E 023°38'0 0.0
2019-Sep-13 10:24N 37°56' E 023°38'0 0.0
2019-Sep-13 10:01N 37°56' E 023°38'0 0.0
2019-Sep-13 09:30N 37°56' E 023°38'0 0.0
2019-Sep-13 09:00N 37°56' E 023°38'0 0.0
2019-Sep-13 08:30N 37°56' E 023°38'0 0.0
2019-Sep-13 07:52N 37°56' E 023°38'0 0.0
2019-Sep-13 07:31N 37°56' E 023°38'0 0.0
2019-Sep-13 07:01N 37°56' E 023°38'0 0.0
2019-Sep-13 06:30N 37°56' E 023°38'0 0.0
2019-Sep-13 06:00N 37°56' E 023°38'1 2.1
2019-Sep-13 05:31N 37°56' E 023°37'1 1.6
2019-Sep-13 05:00N 37°55' E 023°37'4 7.2
2019-Sep-13 04:30N 37°52' E 023°39'4 7.5
2019-Sep-13 04:00N 37°48' E 023°40'4 7.4
2019-Sep-13 03:31N 37°45' E 023°42'5 9.1
2019-Sep-13 03:00N 37°41' E 023°45'5 9.6
2019-Sep-13 02:30N 37°36' E 023°46'  
2019-Sep-09 04:24N 37°23' E 025°55'512.0
2019-Sep-09 04:00N 37°23' E 025°49'612.1
2019-Sep-09 03:28N 37°22' E 025°41'612.0
2019-Sep-09 03:00N 37°22' E 025°34'1212.2
2019-Sep-09 02:00N 37°21' E 025°19'612.2
2019-Sep-09 01:30N 37°20' E 025°11'612.1
2019-Sep-09 01:00N 37°19' E 025°04'611.4
2019-Sep-09 00:30N 37°19' E 024°57'612.5
2019-Sep-09 00:00N 37°18' E 024°49'7611.6
2019-Sep-08 17:27N 37°10' E 023°14'1110.3
2019-Sep-08 16:24N 37°14' E 023°01'410.5
2019-Sep-08 16:00N 37°17' E 022°58'1410.3
2019-Sep-08 14:40N 37°29' E 022°49'510.1
2019-Sep-08 14:10N 37°34' E 022°47'0 1.7
2019-Sep-08 13:58N 37°34' E 022°47'0 0.1
2019-Sep-08 13:28N 37°34' E 022°47'0 0.0
2019-Sep-08 12:37N 37°34' E 022°47'0 0.0
2019-Sep-08 12:25N 37°34' E 022°47'0 0.0
2019-Sep-08 11:55N 37°34' E 022°47'0 0.0
2019-Sep-08 11:25N 37°34' E 022°47'0 0.0
2019-Sep-08 10:55N 37°34' E 022°47'0 0.0
2019-Sep-08 10:25N 37°34' E 022°47'0 0.0
2019-Sep-08 09:58N 37°34' E 022°47'0 0.0
2019-Sep-08 09:28N 37°34' E 022°47'0 0.0
2019-Sep-08 08:58N 37°34' E 022°47'0 0.0
2019-Sep-08 03:51N 37°34' E 022°47'4 5.8
2019-Sep-08 03:07N 37°30' E 022°49'1 5.6
2019-Sep-08 02:57N 37°29' E 022°49'14 6.4
2019-Sep-08 00:48N 37°17' E 022°58'9 6.1
2019-Sep-07 23:20N 37°10' E 023°04'4 5.5
2019-Sep-07 22:40N 37°08' E 023°08'1 6.0
2019-Sep-07 22:26N 37°08' E 023°10'4 6.2
2019-Sep-07 21:47N 37°09' E 023°15'6 6.7
2019-Sep-07 20:50N 37°10' E 023°23'3 8.0
2019-Sep-07 20:30N 37°10' E 023°26'29 6.6
2019-Sep-07 16:07N 37°36' E 023°43'1 8.2
2019-Sep-07 16:00N 37°36' E 023°43'5 9.7
2019-Sep-07 15:30N 37°41' E 023°41'611.5
2019-Sep-07 15:00N 37°47' E 023°39'510.8
2019-Sep-07 14:30N 37°52' E 023°37'5 9.5
2019-Sep-07 14:00N 37°56' E 023°38'0 0.4
2019-Sep-07 13:29N 37°56' E 023°38'0 0.0
2019-Sep-07 12:59N 37°56' E 023°38'0 0.0
2019-Sep-07 12:29N 37°56' E 023°38'0 0.0
2019-Sep-07 11:56N 37°56' E 023°38'0 0.0
2019-Sep-07 11:29N 37°56' E 023°38'0 0.0
2019-Sep-07 10:59N 37°56' E 023°38'0 0.0
2019-Sep-07 10:26N 37°56' E 023°38'0 0.0
2019-Sep-07 09:59N 37°56' E 023°38'0 0.0
2019-Sep-07 09:26N 37°56' E 023°38'0 0.0
2019-Sep-07 08:56N 37°56' E 023°38'0 0.0
2019-Sep-07 08:29N 37°56' E 023°38'0 0.0
2019-Sep-07 07:59N 37°56' E 023°38'0 0.0
2019-Sep-07 07:29N 37°56' E 023°38'0 0.0
2019-Sep-07 06:56N 37°56' E 023°38'0 0.0
2019-Sep-07 06:29N 37°56' E 023°38'0 0.0
2019-Sep-07 05:59N 37°56' E 023°38'0 0.0
2019-Sep-07 05:29N 37°56' E 023°38'0 0.0
2019-Sep-07 04:59N 37°56' E 023°38'0 0.0
2019-Sep-07 04:23N 37°56' E 023°38'0 0.0
2019-Sep-07 03:59N 37°56' E 023°38'0 0.0
2019-Sep-07 03:29N 37°56' E 023°38'0 0.0
2019-Sep-07 02:59N 37°56' E 023°38'0 0.0
2019-Sep-07 02:26N 37°56' E 023°38'0 0.0
2019-Sep-07 02:00N 37°56' E 023°38'1 2.4
2019-Sep-07 01:30N 37°56' E 023°37'3 5.4
2019-Sep-07 01:01N 37°53' E 023°37'4 7.2
2019-Sep-07 00:31N 37°50' E 023°39'4 7.0
2019-Sep-07 00:01N 37°47' E 023°41'4 7.4
2019-Sep-06 23:30N 37°44' E 023°43'4 7.3
2019-Sep-06 23:00N 37°40' E 023°45'4 7.4
2019-Sep-06 22:31N 37°37' E 023°46'4 7.6
2019-Sep-06 22:00N 37°33' E 023°46'36 7.5
2019-Sep-06 17:12N 37°09' E 023°12'311.2
2019-Sep-06 16:57N 37°09' E 023°09'610.2
2019-Sep-06 16:21N 37°12' E 023°02'411.1
2019-Sep-06 16:00N 37°15' E 022°60'2110.4
2019-Sep-06 13:57N 37°34' E 022°47'0 0.3
2019-Sep-06 13:17N 37°34' E 022°47'0 0.0
2019-Sep-06 12:59N 37°34' E 022°47'0 0.0
2019-Sep-06 12:23N 37°34' E 022°47'0 0.1
2019-Sep-06 11:53N 37°34' E 022°47'  

Dump ship's entire track history